Time;durP1;ratioP1;P1;durP2;ratioP2;P2;SDS_P1;SDS_P2;PMS_P1;PMS_P2;Temp;Humidity;BMP_temperature;BMP_pressure;BME280_temperature;BME280_humidity;BME280_pressure;Samples;Min_cycle;Max_cycle;Signal;HPM_P1;HPM_P2
2023/01/31 00:02:42;;;;;;;13.25;6.28;;;;;;;;;;5004902;28;20144;-56
2023/01/31 00:05:09;;;;;;;10.30;6.22;;;;;;;;;;5003468;28;20053;-56
2023/01/31 00:07:44;;;;;;;14.15;6.13;;;;;;;;;;5063592;28;20060;-56
2023/01/31 00:10:19;;;;;;;10.95;5.78;;;;;;;;;;5066699;28;20051;-56
2023/01/31 00:13:03;;;;;;;15.27;6.18;;;;;;;;;;5066663;28;20111;-56
2023/01/31 00:15:47;;;;;;;14.75;6.00;;;;;;;;;;5072326;28;20064;-56
2023/01/31 00:18:31;;;;;;;15.43;6.22;;;;;;;;;;5067124;28;20049;-56
2023/01/31 00:21:15;;;;;;;14.88;6.15;;;;;;;;;;5063920;28;20077;-56
2023/01/31 00:23:59;;;;;;;12.35;6.15;;;;;;;;;;5068342;28;20094;-56
2023/01/31 00:26:44;;;;;;;12.10;7.50;;;;;;;;;;5069514;28;20188;-56
2023/01/31 00:29:37;;;;;;;14.10;7.43;;;;;;;;;;5073725;28;20738;-56
2023/01/31 00:32:21;;;;;;;16.20;6.57;;;;;;;;;;5072195;28;20542;-56
2023/01/31 00:35:05;;;;;;;14.23;5.95;;;;;;;;;;5069050;28;20040;-56
2023/01/31 00:37:49;;;;;;;17.20;8.38;;;;;;;;;;5073785;28;20051;-56
2023/01/31 00:40:33;;;;;;;17.52;6.70;;;;;;;;;;5069267;28;21154;-56
2023/01/31 00:43:17;;;;;;;15.85;6.40;;;;;;;;;;5069964;28;20067;-56
2023/01/31 00:46:01;;;;;;;18.27;8.13;;;;;;;;;;5072116;28;20524;-56
2023/01/31 00:48:45;;;;;;;17.77;8.40;;;;;;;;;;5071030;27;20040;-57
2023/01/31 00:51:29;;;;;;;26.17;7.43;;;;;;;;;;5069085;28;20044;-57
2023/01/31 00:54:03;;;;;;;15.95;7.45;;;;;;;;;;5071441;28;20051;-57
2023/01/31 00:56:56;;;;;;;19.08;8.90;;;;;;;;;;5067945;28;20123;-56
2023/01/31 00:59:40;;;;;;;16.83;6.55;;;;;;;;;;5069558;28;20630;-56
2023/01/31 01:02:25;;;;;;;13.40;6.78;;;;;;;;;;5070213;28;21031;-56
2023/01/31 01:05:29;;;;;;;19.33;7.20;;;;;;;;;;5070556;28;20112;-56
2023/01/31 01:08:13;;;;;;;15.32;5.47;;;;;;;;;;5068541;28;20094;-55
2023/01/31 01:11:07;;;;;;;12.82;5.57;;;;;;;;;;5057835;28;20190;-56
2023/01/31 01:13:51;;;;;;;10.15;5.00;;;;;;;;;;5061375;28;20053;-56
2023/01/31 01:16:57;;;;;;;15.60;6.22;;;;;;;;;;5044484;28;20048;-55
2023/01/31 01:20:02;;;;;;;15.70;5.65;;;;;;;;;;5026360;28;20271;-56
2023/01/31 01:22:43;;;;;;;14.05;5.82;;;;;;;;;;5042979;28;20548;-56
2023/01/31 01:25:27;;;;;;;14.70;5.03;;;;;;;;;;5047665;28;20198;-56
2023/01/31 01:28:02;;;;;;;12.77;6.25;;;;;;;;;;5048727;28;20059;-56
2023/01/31 01:30:46;;;;;;;19.52;5.55;;;;;;;;;;5049381;28;20060;-55
2023/01/31 01:33:39;;;;;;;18.35;5.28;;;;;;;;;;5055032;28;20055;-56
2023/01/31 01:39:38;;;;;;;8.98;4.63;;;;;;;;;;5048174;28;20041;-55
2023/01/31 01:42:04;;;;;;;;;;;;;;;;;;5051881;28;20870;-56
2023/01/31 01:45:12;;;;;;;7.47;4.90;;;;;;;;;;5051962;28;19943;-56
2023/01/31 01:51:14;;;;;;;14.85;6.63;;;;;;;;;;5044350;28;20045;-55
2023/01/31 01:53:52;;;;;;;8.95;4.43;;;;;;;;;;5040855;28;20492;-56
2023/01/31 01:56:49;;;;;;;17.23;6.47;;;;;;;;;;5063272;28;20091;-55
2023/01/31 01:59:32;;;;;;;13.40;5.25;;;;;;;;;;5073451;28;20048;-56
2023/01/31 02:02:07;;;;;;;21.25;5.55;;;;;;;;;;5071957;28;20124;-55
2023/01/31 02:05:01;;;;;;;14.10;5.53;;;;;;;;;;5071103;28;21258;-56
2023/01/31 02:07:45;;;;;;;16.83;6.18;;;;;;;;;;5074329;28;20064;-56
2023/01/31 02:10:50;;;;;;;9.82;4.32;;;;;;;;;;5072202;28;20040;-55
2023/01/31 02:13:43;;;;;;;9.07;3.78;;;;;;;;;;5026561;28;20053;-56
2023/01/31 02:16:27;;;;;;;14.45;5.82;;;;;;;;;;5029686;28;20045;-56
2023/01/31 02:19:21;;;;;;;11.88;4.38;;;;;;;;;;5031276;28;20500;-56
2023/01/31 02:22:05;;;;;;;10.73;4.57;;;;;;;;;;5027538;28;20220;-56
2023/01/31 02:24:49;;;;;;;12.73;4.93;;;;;;;;;;5032776;28;20056;-56
2023/01/31 02:27:43;;;;;;;15.80;7.00;;;;;;;;;;5031042;28;20484;-56
2023/01/31 02:33:10;;;;;;;9.73;4.45;;;;;;;;;;4990674;28;20054;-56
2023/01/31 02:35:51;;;;;;;19.05;4.85;;;;;;;;;;5024411;28;20477;-56
2023/01/31 02:38:30;;;;;;;11.10;3.90;;;;;;;;;;5072634;28;20528;-56
2023/01/31 02:41:05;;;;;;;14.40;4.93;;;;;;;;;;5069177;28;20124;-56
2023/01/31 02:46:58;;;;;;;10.90;4.47;;;;;;;;;;5074990;28;20056;-56
2023/01/31 02:49:36;;;;;;;12.07;4.63;;;;;;;;;;5066320;28;20051;-56
2023/01/31 02:52:16;;;;;;;10.25;5.82;;;;;;;;;;5069630;28;20036;-56
2023/01/31 02:57:40;;;;;;;9.63;3.88;;;;;;;;;;5072435;28;20513;-56
2023/01/31 03:00:08;;;;;;;8.35;3.97;;;;;;;;;;5070392;28;20115;-56
2023/01/31 03:02:34;;;;;;;13.40;5.75;;;;;;;;;;5070292;28;20045;-56
2023/01/31 03:05:00;;;;;;;11.18;5.70;;;;;;;;;;5070545;28;20044;-56
2023/01/31 03:07:30;;;;;;;18.95;4.20;;;;;;;;;;5072453;28;20059;-56
2023/01/31 03:10:02;;;;;;;13.25;5.05;;;;;;;;;;5084867;27;20047;-56
2023/01/31 03:12:47;;;;;;;26.50;4.63;;;;;;;;;;5068333;28;20590;-56
2023/01/31 03:17:30;;;;;;;12.68;4.70;;;;;;;;;;5063246;28;20073;-56
2023/01/31 03:18:20;;;;;;;15.57;5.05;;;;;;;;;;5067595;28;20044;-56
2023/01/31 03:20:54;;;;;;;11.95;5.03;;;;;;;;;;5066083;28;20041;-57
2023/01/31 03:23:22;;;;;;;10.38;3.97;;;;;;;;;;5070397;28;20052;-56
2023/01/31 03:25:49;;;;;;;7.50;4.40;;;;;;;;;;5069374;28;20049;-56
2023/01/31 03:28:49;;;;;;;12.23;5.30;;;;;;;;;;5069066;28;20037;-56
2023/01/31 03:35:05;;;;;;;18.65;5.03;;;;;;;;;;5027761;28;20069;-56
2023/01/31 03:37:50;;;;;;;18.45;4.57;;;;;;;;;;5016870;28;20698;-56
2023/01/31 03:40:44;;;;;;;12.60;4.72;;;;;;;;;;5022665;28;20188;-56
2023/01/31 03:46:53;;;;;;;14.40;4.68;;;;;;;;;;5022934;28;20050;-56
2023/01/31 03:49:40;;;;;;;7.40;3.30;;;;;;;;;;5002597;28;20085;-56
2023/01/31 03:52:40;;;;;;;14.57;4.00;;;;;;;;;;5030095;28;20056;-56
2023/01/31 03:55:40;;;;;;;17.23;5.63;;;;;;;;;;5069855;28;20044;-55
2023/01/31 03:58:18;;;;;;;15.45;4.18;;;;;;;;;;5071208;28;20054;-56
2023/01/31 04:00:56;;;;;;;12.00;3.80;;;;;;;;;;5069881;28;21197;-55
2023/01/31 04:03:49;;;;;;;14.70;7.88;;;;;;;;;;5063430;28;20097;-56
2023/01/31 04:06:35;;;;;;;8.82;4.30;;;;;;;;;;5077528;27;20060;-55
2023/01/31 04:09:28;;;;;;;11.57;4.10;;;;;;;;;;5063893;28;20067;-55
2023/01/31 04:12:12;;;;;;;6.63;2.63;;;;;;;;;;5063923;28;20062;-55
2023/01/31 04:14:57;;;;;;;9.63;3.80;;;;;;;;;;5071173;28;20044;-55
2023/01/31 04:17:35;;;;;;;7.47;4.95;;;;;;;;;;5076121;27;20079;-55
2023/01/31 04:20:20;;;;;;;8.88;3.42;;;;;;;;;;5069061;28;20539;-55
2023/01/31 04:23:13;;;;;;;17.20;8.85;;;;;;;;;;5071183;28;20036;-55
2023/01/31 04:25:39;;;;;;;6.25;2.83;;;;;;;;;;5070415;28;20090;-56
2023/01/31 04:28:05;;;;;;;10.48;3.08;;;;;;;;;;5088098;27;20102;-56
2023/01/31 04:30:31;;;;;;;12.98;4.00;;;;;;;;;;5068928;28;20044;-56
2023/01/31 04:32:57;;;;;;;7.43;3.05;;;;;;;;;;5070175;28;20071;-56
2023/01/31 04:35:23;;;;;;;12.65;4.63;;;;;;;;;;5070816;28;20049;-55
2023/01/31 04:37:49;;;;;;;17.55;4.95;;;;;;;;;;5072463;28;20211;-55
2023/01/31 04:40:16;;;;;;;7.03;2.83;;;;;;;;;;5070917;28;20621;-55
2023/01/31 04:42:42;;;;;;;13.63;3.38;;;;;;;;;;5070342;28;20091;-55
2023/01/31 04:45:08;;;;;;;14.20;3.05;;;;;;;;;;5071077;28;20051;-55
2023/01/31 04:47:34;;;;;;;7.28;3.08;;;;;;;;;;5074004;28;20040;-56
2023/01/31 04:50:00;;;;;;;13.77;4.40;;;;;;;;;;5071621;28;20063;-55
2023/01/31 04:52:26;;;;;;;6.30;3.40;;;;;;;;;;5073950;28;20076;-56
2023/01/31 04:54:53;;;;;;;6.53;3.35;;;;;;;;;;5072728;28;20216;-56
2023/01/31 04:57:19;;;;;;;8.63;3.80;;;;;;;;;;5065108;28;20040;-56
2023/01/31 04:59:45;;;;;;;5.95;3.45;;;;;;;;;;5070292;28;20041;-56
2023/01/31 05:02:13;;;;;;;11.25;3.55;;;;;;;;;;5072189;28;20116;-55
2023/01/31 05:04:40;;;;;;;13.02;3.38;;;;;;;;;;5069289;28;20158;-56
2023/01/31 05:07:06;;;;;;;12.95;3.90;;;;;;;;;;5071180;28;20036;-56
2023/01/31 05:09:32;;;;;;;12.35;4.28;;;;;;;;;;5083652;27;20045;-55
2023/01/31 05:11:58;;;;;;;10.85;3.53;;;;;;;;;;5067759;28;20160;-55
2023/01/31 05:14:24;;;;;;;7.38;3.17;;;;;;;;;;5069099;28;20040;-56
2023/01/31 05:16:50;;;;;;;20.58;6.35;;;;;;;;;;5071841;28;20048;-56
2023/01/31 05:19:16;;;;;;;10.68;3.25;;;;;;;;;;5061148;28;20558;-55
2023/01/31 05:21:57;;;;;;;10.02;3.95;;;;;;;;;;5068733;28;20645;-56
2023/01/31 05:24:24;;;;;;;7.05;3.70;;;;;;;;;;5069497;28;20132;-56
2023/01/31 05:26:55;;;;;;;6.43;3.33;;;;;;;;;;5070449;28;20563;-56
2023/01/31 05:29:21;;;;;;;11.60;3.80;;;;;;;;;;5071504;28;20126;-56
2023/01/31 05:31:50;;;;;;;14.20;3.15;;;;;;;;;;5070084;28;20101;-55
2023/01/31 05:34:16;;;;;;;9.10;3.47;;;;;;;;;;5065510;28;20557;-55
2023/01/31 05:36:43;;;;;;;7.05;3.25;;;;;;;;;;5062816;28;20037;-56
2023/01/31 05:39:09;;;;;;;8.20;3.15;;;;;;;;;;5070247;28;20063;-56
2023/01/31 05:41:35;;;;;;;9.05;2.85;;;;;;;;;;5070294;28;20041;-55
2023/01/31 05:44:01;;;;;;;7.18;3.33;;;;;;;;;;5068266;28;20049;-56
2023/01/31 05:46:27;;;;;;;23.42;5.60;;;;;;;;;;5070703;28;20048;-56
2023/01/31 05:48:53;;;;;;;13.48;4.00;;;;;;;;;;5064596;28;20047;-55
2023/01/31 05:51:20;;;;;;;12.13;4.22;;;;;;;;;;5065881;28;20120;-56
2023/01/31 05:53:47;;;;;;;10.82;3.35;;;;;;;;;;5070773;28;20061;-55
2023/01/31 05:56:13;;;;;;;13.00;3.90;;;;;;;;;;5064862;28;20049;-56
2023/01/31 05:58:39;;;;;;;11.38;4.57;;;;;;;;;;5068233;28;20110;-55
2023/01/31 06:01:05;;;;;;;11.05;4.97;;;;;;;;;;5070376;28;20044;-56
2023/01/31 06:03:31;;;;;;;11.20;3.20;;;;;;;;;;5070463;28;20147;-56
2023/01/31 06:05:58;;;;;;;16.50;4.45;;;;;;;;;;5092039;27;21125;-58
2023/01/31 06:08:24;;;;;;;6.70;4.20;;;;;;;;;;5063264;28;20172;-57
2023/01/31 06:10:50;;;;;;;8.18;3.42;;;;;;;;;;5062975;28;21307;-57
2023/01/31 06:13:16;;;;;;;11.90;4.70;;;;;;;;;;5064265;28;20076;-58
2023/01/31 06:15:45;;;;;;;8.93;4.15;;;;;;;;;;5060767;28;20556;-57
2023/01/31 06:18:12;;;;;;;9.35;4.53;;;;;;;;;;5080327;27;20175;-57
2023/01/31 06:20:38;;;;;;;8.85;3.75;;;;;;;;;;5066193;28;20048;-57
2023/01/31 06:23:04;;;;;;;14.77;3.70;;;;;;;;;;5064421;28;20098;-57
2023/01/31 06:25:30;;;;;;;12.70;3.80;;;;;;;;;;5062861;28;20048;-58
2023/01/31 06:27:57;;;;;;;9.73;4.95;;;;;;;;;;5067541;28;20524;-57
2023/01/31 06:30:23;;;;;;;8.60;3.90;;;;;;;;;;5060371;28;20045;-58
2023/01/31 06:32:49;;;;;;;11.20;3.78;;;;;;;;;;5065215;28;20048;-58
2023/01/31 06:35:15;;;;;;;15.80;3.47;;;;;;;;;;5062217;28;20041;-57
2023/01/31 06:37:41;;;;;;;8.23;3.03;;;;;;;;;;5068479;28;20055;-58
2023/01/31 06:40:08;;;;;;;11.48;5.10;;;;;;;;;;5071927;28;20047;-57
2023/01/31 06:42:34;;;;;;;8.77;3.83;;;;;;;;;;5074335;28;20131;-57
2023/01/31 06:45:00;;;;;;;7.68;3.35;;;;;;;;;;5075186;28;20844;-57
2023/01/31 06:47:26;;;;;;;14.23;2.90;;;;;;;;;;5069643;28;20032;-57
2023/01/31 06:49:52;;;;;;;13.10;3.72;;;;;;;;;;5073266;28;20055;-57
2023/01/31 06:52:18;;;;;;;7.32;4.13;;;;;;;;;;5074778;28;20039;-57
2023/01/31 06:54:44;;;;;;;11.65;3.60;;;;;;;;;;5074559;28;20051;-57
2023/01/31 06:57:10;;;;;;;8.93;4.55;;;;;;;;;;5072520;28;20653;-57
2023/01/31 06:59:36;;;;;;;10.15;3.38;;;;;;;;;;5074994;28;20051;-58
2023/01/31 07:02:02;;;;;;;8.65;3.15;;;;;;;;;;5064823;28;20033;-57
2023/01/31 07:04:28;;;;;;;9.80;3.45;;;;;;;;;;5070657;28;20123;-60
2023/01/31 07:06:56;;;;;;;11.15;3.70;;;;;;;;;;5070502;28;20435;-58
2023/01/31 07:09:22;;;;;;;15.73;4.72;;;;;;;;;;5072214;28;20519;-58
2023/01/31 07:11:48;;;;;;;8.18;3.65;;;;;;;;;;5067126;28;20578;-58
2023/01/31 07:14:14;;;;;;;9.48;5.10;;;;;;;;;;5074132;28;20183;-57
2023/01/31 07:16:40;;;;;;;15.45;4.68;;;;;;;;;;5069005;28;20051;-58
2023/01/31 07:19:06;;;;;;;18.63;4.43;;;;;;;;;;5070454;28;20033;-57
2023/01/31 07:21:34;;;;;;;9.70;3.72;;;;;;;;;;5071639;28;20048;-58
2023/01/31 07:24:00;;;;;;;11.55;4.15;;;;;;;;;;5063509;28;20048;-57
2023/01/31 07:26:26;;;;;;;11.45;3.88;;;;;;;;;;5071512;28;20044;-58
2023/01/31 07:28:53;;;;;;;14.88;3.92;;;;;;;;;;5070132;28;20063;-58
2023/01/31 07:31:19;;;;;;;11.88;4.53;;;;;;;;;;5100803;27;20124;-58
2023/01/31 07:33:46;;;;;;;8.82;4.03;;;;;;;;;;5071939;28;20067;-58
2023/01/31 07:36:13;;;;;;;16.48;5.22;;;;;;;;;;5083917;27;20136;-57
2023/01/31 07:38:40;;;;;;;12.88;4.05;;;;;;;;;;5072460;28;20135;-58
2023/01/31 07:41:07;;;;;;;19.40;3.75;;;;;;;;;;5069481;28;20123;-57
2023/01/31 07:43:33;;;;;;;11.32;4.63;;;;;;;;;;5067177;28;20597;-57
2023/01/31 07:45:59;;;;;;;19.55;4.43;;;;;;;;;;5065684;28;20374;-58
2023/01/31 07:48:26;;;;;;;17.73;5.40;;;;;;;;;;5062128;28;20559;-58
2023/01/31 07:50:53;;;;;;;10.70;3.60;;;;;;;;;;5063840;28;20578;-57
2023/01/31 07:53:19;;;;;;;10.88;4.00;;;;;;;;;;5073718;28;20044;-57
2023/01/31 07:55:46;;;;;;;16.15;3.70;;;;;;;;;;5073101;28;20645;-58
2023/01/31 07:58:13;;;;;;;13.48;4.15;;;;;;;;;;5074089;28;20098;-58
2023/01/31 08:03:32;;;;;;;9.50;3.22;;;;;;;;;;5070283;28;20600;-57
2023/01/31 08:05:58;;;;;;;13.85;4.00;;;;;;;;;;5073230;28;20045;-58
2023/01/31 08:08:25;;;;;;;10.50;3.67;;;;;;;;;;5074973;28;20112;-57
2023/01/31 08:10:51;;;;;;;9.48;4.55;;;;;;;;;;5070426;28;20044;-58
2023/01/31 08:13:17;;;;;;;12.18;3.63;;;;;;;;;;5074562;28;20087;-58
2023/01/31 08:15:43;;;;;;;11.02;3.05;;;;;;;;;;5074250;28;20044;-58
2023/01/31 08:18:09;;;;;;;16.55;4.07;;;;;;;;;;5075602;28;20048;-58
2023/01/31 08:20:38;;;;;;;10.75;4.50;;;;;;;;;;5070693;28;20052;-58
2023/01/31 08:23:04;;;;;;;12.63;3.55;;;;;;;;;;5072442;28;20618;-57
2023/01/31 08:25:30;;;;;;;11.88;4.00;;;;;;;;;;5074008;28;20122;-58
2023/01/31 08:27:57;;;;;;;14.85;5.45;;;;;;;;;;5074300;28;20044;-58
2023/01/31 08:30:23;;;;;;;11.38;6.15;;;;;;;;;;5075599;28;20037;-58
2023/01/31 08:32:49;;;;;;;7.35;3.72;;;;;;;;;;5075421;28;20524;-57
2023/01/31 08:35:15;;;;;;;10.85;3.78;;;;;;;;;;5073530;28;20048;-58
2023/01/31 08:37:41;;;;;;;11.35;4.28;;;;;;;;;;5074507;28;20040;-58
2023/01/31 08:40:07;;;;;;;9.98;6.57;;;;;;;;;;5076108;28;20051;-58
2023/01/31 08:42:34;;;;;;;13.80;5.40;;;;;;;;;;5074630;28;20040;-57
2023/01/31 08:45:00;;;;;;;13.77;5.35;;;;;;;;;;5075200;28;20390;-57
2023/01/31 08:47:26;;;;;;;8.32;4.15;;;;;;;;;;5074253;28;20128;-58
2023/01/31 08:49:52;;;;;;;8.68;3.35;;;;;;;;;;5071114;28;20083;-57
2023/01/31 08:52:18;;;;;;;6.70;3.83;;;;;;;;;;5070816;28;20052;-58
2023/01/31 08:54:44;;;;;;;16.80;6.00;;;;;;;;;;5073952;28;20098;-58
2023/01/31 08:57:10;;;;;;;10.02;3.58;;;;;;;;;;5075448;28;20075;-58
2023/01/31 08:59:36;;;;;;;17.58;5.68;;;;;;;;;;5075263;28;20131;-57
2023/01/31 09:02:02;;;;;;;11.50;4.10;;;;;;;;;;5074278;28;20499;-58
2023/01/31 09:04:28;;;;;;;15.20;4.05;;;;;;;;;;5075025;28;20639;-57
2023/01/31 09:06:55;;;;;;;11.25;4.47;;;;;;;;;;5076125;28;20780;-58
2023/01/31 09:09:21;;;;;;;13.20;5.57;;;;;;;;;;5073989;28;20043;-58
2023/01/31 09:11:47;;;;;;;15.32;5.75;;;;;;;;;;5074808;28;20053;-57
2023/01/31 09:14:13;;;;;;;12.27;4.35;;;;;;;;;;5076664;28;20033;-57
2023/01/31 09:16:39;;;;;;;11.13;4.70;;;;;;;;;;5075550;28;20056;-57
2023/01/31 09:19:05;;;;;;;10.50;5.40;;;;;;;;;;5074390;28;20044;-57
2023/01/31 09:21:32;;;;;;;8.95;3.80;;;;;;;;;;5074076;28;20041;-58
2023/01/31 09:24:01;;;;;;;15.40;3.92;;;;;;;;;;5073735;28;20040;-58
2023/01/31 09:26:27;;;;;;;9.13;4.10;;;;;;;;;;5070400;28;20045;-57
2023/01/31 09:28:54;;;;;;;11.50;4.22;;;;;;;;;;5074745;28;20102;-57
2023/01/31 09:31:21;;;;;;;4.32;2.30;;;;;;;;;;5075150;28;20912;-57
2023/01/31 09:33:47;;;;;;;10.98;4.80;;;;;;;;;;5074417;28;20033;-57
2023/01/31 09:36:14;;;;;;;8.05;4.43;;;;;;;;;;5072741;28;20563;-58
2023/01/31 09:38:40;;;;;;;14.27;4.05;;;;;;;;;;5105132;27;20036;-59
2023/01/31 09:41:16;;;;;;;10.50;3.70;;;;;;;;;;5065575;28;20037;-58
2023/01/31 09:43:44;;;;;;;10.07;4.43;;;;;;;;;;5073600;28;20123;-57
2023/01/31 09:46:16;;;;;;;13.18;4.28;;;;;;;;;;5073091;28;20047;-58
2023/01/31 09:48:44;;;;;;;7.70;3.42;;;;;;;;;;5074531;28;20071;-58
2023/01/31 09:51:12;;;;;;;15.02;4.38;;;;;;;;;;5074434;28;20686;-58
2023/01/31 09:53:40;;;;;;;10.77;3.53;;;;;;;;;;5074105;28;20040;-57
2023/01/31 09:56:06;;;;;;;9.82;3.90;;;;;;;;;;5073392;28;20048;-57
2023/01/31 09:58:32;;;;;;;6.57;3.67;;;;;;;;;;5074072;28;20366;-58
2023/01/31 10:01:06;;;;;;;4.10;2.42;;;;;;;;;;5089115;27;20044;-58
2023/01/31 10:03:40;;;;;;;15.40;4.20;;;;;;;;;;5074533;28;20044;-58
2023/01/31 10:06:27;;;;;;;10.70;3.50;;;;;;;;;;5074330;28;21221;-57
2023/01/31 10:09:16;;;;;;;7.88;3.55;;;;;;;;;;5078881;28;20044;-58
2023/01/31 10:11:44;;;;;;;12.57;4.55;;;;;;;;;;5076823;28;20043;-57
2023/01/31 10:14:13;;;;;;;6.00;4.63;;;;;;;;;;5078315;28;20471;-57
2023/01/31 10:16:46;;;;;;;13.07;4.70;;;;;;;;;;5075481;28;20037;-58
2023/01/31 10:19:16;;;;;;;8.90;5.18;;;;;;;;;;5076319;28;20639;-57
2023/01/31 10:21:45;;;;;;;8.82;4.15;;;;;;;;;;5076146;28;20033;-58
2023/01/31 10:24:11;;;;;;;11.20;4.85;;;;;;;;;;5086352;28;20590;-57
2023/01/31 10:26:40;;;;;;;10.10;4.25;;;;;;;;;;5073486;28;20044;-58
2023/01/31 10:29:06;;;;;;;9.32;3.40;;;;;;;;;;5077283;28;20045;-57
2023/01/31 10:31:35;;;;;;;7.25;4.20;;;;;;;;;;5075943;28;20046;-57
2023/01/31 10:34:11;;;;;;;11.00;4.07;;;;;;;;;;5076550;28;21682;-57
2023/01/31 10:36:40;;;;;;;12.98;4.05;;;;;;;;;;5074753;28;20051;-57
2023/01/31 10:39:22;;;;;;;5.82;3.63;;;;;;;;;;5090251;27;20658;-57
2023/01/31 10:41:48;;;;;;;;;;;;;;;;;;5076487;28;20055;-58
2023/01/31 10:44:21;;;;;;;7.00;3.42;;;;;;;;;;5076384;28;19927;-58
2023/01/31 10:46:48;;;;;;;7.70;3.78;;;;;;;;;;5075774;28;20052;-57
2023/01/31 10:49:14;;;;;;;15.23;4.32;;;;;;;;;;5093849;27;20089;-57
2023/01/31 10:51:49;;;;;;;12.57;4.47;;;;;;;;;;5075752;28;20620;-58
2023/01/31 10:54:23;;;;;;;12.27;4.25;;;;;;;;;;5078006;28;20119;-57
2023/01/31 10:56:49;;;;;;;13.45;4.82;;;;;;;;;;5075768;28;21124;-57
2023/01/31 10:59:24;;;;;;;12.27;4.85;;;;;;;;;;5077011;28;20041;-58
2023/01/31 11:01:51;;;;;;;16.25;6.50;;;;;;;;;;5075939;28;20047;-58
2023/01/31 11:04:25;;;;;;;9.90;3.78;;;;;;;;;;5076685;28;20091;-58
2023/01/31 11:06:52;;;;;;;15.52;4.78;;;;;;;;;;5075370;28;20629;-58
2023/01/31 11:09:18;;;;;;;7.72;3.90;;;;;;;;;;5076306;28;20425;-58
2023/01/31 11:11:55;;;;;;;10.02;3.15;;;;;;;;;;5074695;28;20059;-57
2023/01/31 11:14:21;;;;;;;15.73;5.72;;;;;;;;;;5078100;28;20075;-58
2023/01/31 11:16:49;;;;;;;11.35;6.07;;;;;;;;;;5074507;28;20041;-57
2023/01/31 11:19:21;;;;;;;13.23;5.85;;;;;;;;;;5077839;28;20783;-57
2023/01/31 11:21:49;;;;;;;9.98;4.55;;;;;;;;;;5076616;28;20064;-58
2023/01/31 11:24:17;;;;;;;7.65;3.22;;;;;;;;;;5068142;28;20048;-57
2023/01/31 11:26:50;;;;;;;8.15;4.53;;;;;;;;;;5075543;28;20075;-59
2023/01/31 11:29:18;;;;;;;16.05;4.35;;;;;;;;;;5075945;28;20050;-57
2023/01/31 11:31:46;;;;;;;10.80;4.90;;;;;;;;;;5075132;28;20115;-57
2023/01/31 11:34:32;;;;;;;14.85;4.95;;;;;;;;;;5075384;28;20111;-58
2023/01/31 11:37:25;;;;;;;12.45;5.25;;;;;;;;;;5088558;28;20093;-57
2023/01/31 11:39:58;;;;;;;12.50;4.63;;;;;;;;;;5074131;28;20048;-58
2023/01/31 11:42:24;;;;;;;10.98;5.57;;;;;;;;;;5074083;28;20043;-58
2023/01/31 11:44:58;;;;;;;14.93;5.38;;;;;;;;;;5076550;28;20048;-58
2023/01/31 11:47:38;;;;;;;14.93;4.55;;;;;;;;;;5074998;28;20569;-58
2023/01/31 11:50:05;;;;;;;11.02;3.65;;;;;;;;;;5072874;28;20131;-58
2023/01/31 11:52:33;;;;;;;20.92;8.15;;;;;;;;;;5071155;27;20047;-58
2023/01/31 11:55:01;;;;;;;10.65;3.70;;;;;;;;;;5074285;28;20678;-58
2023/01/31 11:57:33;;;;;;;11.88;5.30;;;;;;;;;;5088731;27;20542;-58
2023/01/31 12:00:00;;;;;;;9.25;4.00;;;;;;;;;;5075267;28;20048;-58
2023/01/31 12:02:27;;;;;;;12.00;3.38;;;;;;;;;;5073378;28;20455;-58
2023/01/31 12:04:53;;;;;;;13.68;4.93;;;;;;;;;;5090391;27;20531;-58
2023/01/31 12:07:29;;;;;;;12.77;4.90;;;;;;;;;;5073684;28;21224;-58
2023/01/31 12:09:55;;;;;;;12.75;3.70;;;;;;;;;;5074637;28;20059;-58
2023/01/31 12:12:28;;;;;;;13.38;5.30;;;;;;;;;;5072290;28;20064;-58
2023/01/31 12:14:55;;;;;;;11.18;4.13;;;;;;;;;;5106189;27;20045;-57
2023/01/31 12:17:21;;;;;;;7.18;3.08;;;;;;;;;;5074132;28;20079;-58
2023/01/31 12:19:54;;;;;;;8.82;3.55;;;;;;;;;;5074587;28;20040;-57
2023/01/31 12:22:40;;;;;;;12.35;4.50;;;;;;;;;;5073047;28;20045;-57
2023/01/31 12:25:12;;;;;;;9.73;3.35;;;;;;;;;;5074570;28;20041;-57
2023/01/31 12:27:38;;;;;;;11.23;3.83;;;;;;;;;;5073790;28;20474;-58
2023/01/31 12:30:08;;;;;;;5.10;2.63;;;;;;;;;;5074213;28;20037;-57
2023/01/31 12:32:40;;;;;;;6.10;2.63;;;;;;;;;;5073851;28;20064;-58
2023/01/31 12:35:23;;;;;;;6.32;1.80;;;;;;;;;;5076018;28;20054;-58
2023/01/31 12:37:49;;;;;;;10.85;3.72;;;;;;;;;;5073116;28;20059;-57
2023/01/31 12:40:15;;;;;;;6.43;2.25;;;;;;;;;;5075213;28;20067;-58
2023/01/31 12:42:53;;;;;;;10.15;2.78;;;;;;;;;;5088992;27;20052;-57
2023/01/31 12:45:32;;;;;;;6.53;2.83;;;;;;;;;;5074798;28;20044;-57
2023/01/31 12:48:10;;;;;;;6.28;2.50;;;;;;;;;;5076207;28;20071;-58
2023/01/31 12:50:52;;;;;;;10.23;4.18;;;;;;;;;;5076364;28;20689;-58
2023/01/31 12:53:18;;;;;;;17.30;3.10;;;;;;;;;;5074990;28;20043;-58
2023/01/31 12:55:57;;;;;;;10.65;2.75;;;;;;;;;;5067841;28;21345;-58
2023/01/31 12:58:23;;;;;;;7.13;2.20;;;;;;;;;;5074015;28;20544;-58
2023/01/31 13:01:04;;;;;;;6.50;2.05;;;;;;;;;;5075289;28;20562;-57
2023/01/31 13:03:36;;;;;;;9.00;2.45;;;;;;;;;;5074789;28;20040;-58
2023/01/31 13:06:09;;;;;;;8.43;2.00;;;;;;;;;;5074592;28;20580;-57
2023/01/31 13:08:38;;;;;;;4.07;1.73;;;;;;;;;;5075569;28;20275;-58
2023/01/31 13:11:13;;;;;;;11.20;2.50;;;;;;;;;;5086297;27;20487;-58
2023/01/31 13:13:45;;;;;;;8.70;2.85;;;;;;;;;;5074488;28;20041;-57
2023/01/31 13:16:16;;;;;;;6.30;2.15;;;;;;;;;;5073737;28;20059;-58
2023/01/31 13:18:42;;;;;;;16.02;4.82;;;;;;;;;;5074136;28;20115;-58
2023/01/31 13:21:10;;;;;;;8.30;2.00;;;;;;;;;;5073142;28;20048;-58
2023/01/31 13:23:45;;;;;;;7.10;2.90;;;;;;;;;;5073945;28;20076;-58
2023/01/31 13:26:13;;;;;;;13.95;4.03;;;;;;;;;;5106736;27;20107;-57
2023/01/31 13:28:48;;;;;;;17.83;3.30;;;;;;;;;;5073783;28;20098;-58
2023/01/31 13:31:19;;;;;;;6.60;2.35;;;;;;;;;;5072659;28;20048;-58
2023/01/31 13:33:52;;;;;;;8.82;2.50;;;;;;;;;;5071976;28;20070;-57
2023/01/31 13:36:21;;;;;;;6.65;2.50;;;;;;;;;;5072763;28;20036;-58
2023/01/31 13:38:48;;;;;;;5.78;2.92;;;;;;;;;;5072399;28;20044;-58
2023/01/31 13:41:20;;;;;;;9.38;2.13;;;;;;;;;;5073553;28;20064;-58
2023/01/31 13:43:47;;;;;;;8.25;3.15;;;;;;;;;;5073772;28;20055;-58
2023/01/31 13:46:14;;;;;;;8.27;3.75;;;;;;;;;;5073621;28;20044;-58
2023/01/31 13:48:42;;;;;;;11.88;2.63;;;;;;;;;;5075031;28;20940;-58
2023/01/31 13:51:10;;;;;;;6.13;2.10;;;;;;;;;;5072941;28;20098;-58
2023/01/31 13:53:41;;;;;;;8.75;2.75;;;;;;;;;;5086804;27;20041;-59
2023/01/31 13:56:09;;;;;;;8.27;2.65;;;;;;;;;;5088097;27;20044;-58
2023/01/31 13:58:36;;;;;;;5.68;2.85;;;;;;;;;;5072805;28;20040;-58
2023/01/31 14:01:06;;;;;;;15.43;2.45;;;;;;;;;;5071950;28;20353;-58
2023/01/31 14:03:51;;;;;;;9.48;2.92;;;;;;;;;;5072241;28;20387;-58
2023/01/31 14:06:18;;;;;;;19.75;3.53;;;;;;;;;;5073734;27;20531;-58
2023/01/31 14:08:50;;;;;;;10.43;3.22;;;;;;;;;;5072706;28;20977;-58
2023/01/31 14:11:16;;;;;;;8.52;3.22;;;;;;;;;;5072253;28;20041;-58
2023/01/31 14:13:43;;;;;;;3.90;1.90;;;;;;;;;;5073603;28;20095;-58
2023/01/31 14:16:45;;;;;;;13.90;4.82;;;;;;;;;;5073216;28;20543;-58
2023/01/31 14:19:23;;;;;;;16.25;3.92;;;;;;;;;;5088158;27;20064;-58
2023/01/31 14:21:52;;;;;;;7.20;2.97;;;;;;;;;;5072815;28;20044;-58
2023/01/31 14:24:20;;;;;;;7.47;3.20;;;;;;;;;;5087968;27;20045;-58
2023/01/31 14:26:49;;;;;;;8.35;3.03;;;;;;;;;;5086166;27;20071;-58
2023/01/31 14:29:20;;;;;;;10.40;3.47;;;;;;;;;;5073447;28;20527;-58
2023/01/31 14:31:47;;;;;;;12.13;4.57;;;;;;;;;;5068083;28;20045;-58
2023/01/31 14:34:25;;;;;;;5.75;1.80;;;;;;;;;;5074073;28;20248;-58
2023/01/31 14:36:54;;;;;;;8.90;3.55;;;;;;;;;;5072887;28;20044;-59
2023/01/31 14:39:27;;;;;;;5.93;2.33;;;;;;;;;;5073835;28;20044;-58
2023/01/31 14:42:12;;;;;;;5.10;2.65;;;;;;;;;;5072023;28;20045;-58
2023/01/31 14:44:58;;;;;;;8.48;2.67;;;;;;;;;;5074150;28;20049;-58
2023/01/31 14:47:24;;;;;;;15.40;3.78;;;;;;;;;;5074305;28;20114;-58
2023/01/31 14:50:00;;;;;;;10.00;3.03;;;;;;;;;;5073755;28;20052;-58
2023/01/31 14:52:39;;;;;;;10.27;2.72;;;;;;;;;;5076350;28;20127;-58
2023/01/31 14:55:24;;;;;;;6.10;2.47;;;;;;;;;;5077203;28;20131;-59
2023/01/31 14:57:52;;;;;;;9.73;3.00;;;;;;;;;;5076667;28;20043;-58
2023/01/31 15:00:26;;;;;;;13.73;2.88;;;;;;;;;;5076666;28;20175;-58
2023/01/31 15:03:04;;;;;;;5.68;2.22;;;;;;;;;;5074348;28;20040;-58
2023/01/31 15:05:30;;;;;;;8.55;3.13;;;;;;;;;;5092609;27;20051;-58
2023/01/31 15:08:02;;;;;;;7.20;2.42;;;;;;;;;;5075239;28;20048;-58
2023/01/31 15:10:28;;;;;;;;;;;;;;;;;;5077357;28;20049;-58
2023/01/31 15:12:59;;;;;;;10.35;2.80;;;;;;;;;;5106142;27;19921;-58
2023/01/31 15:15:28;;;;;;;12.02;3.50;;;;;;;;;;5076758;28;20128;-58
2023/01/31 15:17:56;;;;;;;8.48;2.60;;;;;;;;;;5075183;28;20044;-58
2023/01/31 15:20:35;;;;;;;11.82;3.13;;;;;;;;;;5074708;28;20543;-59
2023/01/31 15:23:04;;;;;;;10.57;2.83;;;;;;;;;;5075198;28;20045;-58
2023/01/31 15:25:35;;;;;;;7.93;3.30;;;;;;;;;;5075576;28;20052;-58
2023/01/31 15:28:02;;;;;;;14.27;5.03;;;;;;;;;;5075142;28;20170;-58
2023/01/31 15:30:30;;;;;;;9.70;3.17;;;;;;;;;;5073896;28;20117;-58
2023/01/31 15:33:03;;;;;;;14.30;5.03;;;;;;;;;;5074638;28;20041;-58
2023/01/31 15:35:34;;;;;;;10.15;3.83;;;;;;;;;;5073934;28;20055;-58